REAL6 LYPG-EGJJ
Flight info
| Callsign | REAL6 |
|---|---|
| Flight time | N/A |
| Altitude | 20000 |
| Route | NIK L604 GACMO/N0159F470 DCT ZDA/N0171F200 N606 PUL P11 ROTAR/N0173F180 T132 ROSKA/N0158F470 DCT RESIA DCT OLBEN T10 LUMEL Z600 HR Y112 RLP/N0172F180 R11 MOTAL A3 DOMOD H20 KOVAK A34 LGL H490 SENLO G274 BEVAV |
| Aircraft | EUFI/M-SDGHITUY/LB1 |
Departure
| Time | N/A |
|---|---|
| Airport | Podgorica Airport / Podgorica Golubovci Airbase (LYPG) |
Arrival
| Time | 2026-01-19 17:50 |
|---|---|
| Airport | Jersey Airport (EGJJ) |
| Time | Latitude | Longitude | Altitude | Speed | Heading |
|---|---|---|---|---|---|
| 2026-01-19 17:08 | 47.60920 | 2.11236 | 37087 ft | 475 kts | 292° |
| 2026-01-19 17:09 | 47.66508 | 1.93476 | 37080 ft | 474 kts | 291° |
| 2026-01-19 17:11 | 47.77443 | 1.57810 | 37074 ft | 475 kts | 291° |
| 2026-01-19 17:13 | 47.88354 | 1.21629 | 37074 ft | 501 kts | 291° |
| 2026-01-19 17:15 | 48.00546 | 0.84531 | 37021 ft | 514 kts | 319° |
| 2026-01-19 17:17 | 48.28484 | 0.73174 | 37054 ft | 525 kts | 344° |
| 2026-01-19 17:19 | 48.56700 | 0.62003 | 37046 ft | 526 kts | 343° |
| 2026-01-19 17:21 | 48.82549 | 0.45093 | 36999 ft | 505 kts | 288° |
| 2026-01-19 17:22 | 48.86849 | 0.08970 | 37036 ft | 500 kts | 282° |
| 2026-01-19 17:25 | 48.94850 | -0.37039 | 37017 ft | 501 kts | 281° |
| 2026-01-19 17:26 | 49.00925 | -0.72967 | 37019 ft | 501 kts | 280° |
| 2026-01-19 17:29 | 49.08066 | -1.19339 | 37002 ft | 497 kts | 271° |
| 2026-01-19 17:30 | 49.07140 | -1.55834 | 35819 ft | 472 kts | 263° |
| 2026-01-19 17:33 | 49.07630 | -1.91055 | 27192 ft | 298 kts | 263° |
| 2026-01-19 17:34 | 49.08133 | -2.03432 | 24077 ft | 286 kts | 264° |
| 2026-01-19 17:34 | 49.08375 | -2.09441 | 22459 ft | 281 kts | 264° |
| 2026-01-19 17:34 | 49.08492 | -2.12390 | 21629 ft | 277 kts | 264° |
| 2026-01-19 17:35 | 49.08717 | -2.18124 | 20050 ft | 269 kts | 265° |
| 2026-01-19 17:36 | 49.09042 | -2.26502 | 17774 ft | 259 kts | 265° |
| 2026-01-19 17:36 | 49.09248 | -2.31895 | 16147 ft | 251 kts | 265° |
| 2026-01-19 17:37 | 49.09442 | -2.37129 | 14602 ft | 246 kts | 265° |
| 2026-01-19 17:37 | 49.09633 | -2.42390 | 12984 ft | 251 kts | 266° |
| 2026-01-19 17:38 | 49.09837 | -2.47785 | 11249 ft | 260 kts | 270° |
| 2026-01-19 17:38 | 49.12101 | -2.52072 | 9438 ft | 287 kts | 340° |
| 2026-01-19 17:38 | 49.14062 | -2.52204 | 8484 ft | 292 kts | 15° |
| 2026-01-19 17:39 | 49.16813 | -2.48108 | 6597 ft | 286 kts | 73° |
| 2026-01-19 17:40 | 49.18233 | -2.40659 | 6309 ft | 202 kts | 78° |
| 2026-01-19 17:40 | 49.17683 | -2.36734 | 5540 ft | 283 kts | 148° |
| 2026-01-19 17:41 | 49.13446 | -2.37790 | 4738 ft | 407 kts | 237° |
| 2026-01-19 17:41 | 49.12209 | -2.46893 | 4784 ft | 467 kts | 271° |
| 2026-01-19 17:41 | 49.12660 | -2.51523 | 4647 ft | 405 kts | 279° |
| 2026-01-19 17:42 | 49.14101 | -2.58713 | 4617 ft | 314 kts | 289° |
| 2026-01-19 17:42 | 49.15567 | -2.63284 | 4548 ft | 266 kts | 294° |
| 2026-01-19 17:43 | 49.18619 | -2.68073 | 2910 ft | 271 kts | 342° |
| 2026-01-19 17:44 | 49.20915 | -2.63424 | 2863 ft | 208 kts | 133° |
| 2026-01-19 17:44 | 49.19436 | -2.60810 | 2948 ft | 190 kts | 140° |
| 2026-01-19 17:45 | 49.17588 | -2.58017 | 2956 ft | 192 kts | 122° |
| 2026-01-19 17:45 | 49.17627 | -2.53853 | 2945 ft | 208 kts | 75° |
| 2026-01-19 17:46 | 49.18548 | -2.49714 | 2972 ft | 197 kts | 79° |
| 2026-01-19 17:46 | 49.18856 | -2.47512 | 3005 ft | 287 kts | 84° |
| 2026-01-19 17:46 | 49.19263 | -2.41557 | 3083 ft | 235 kts | 91° |
| 2026-01-19 17:47 | 49.19511 | -2.37539 | 2275 ft | 171 kts | 90° |
| 2026-01-19 17:48 | 49.19829 | -2.31697 | 1267 ft | 207 kts | 88° |
| 2026-01-19 17:48 | 49.20204 | -2.27216 | 1488 ft | 206 kts | 86° |
| 2026-01-19 17:49 | 49.20476 | -2.23463 | 790 ft | 157 kts | 88° |
| 2026-01-19 17:49 | 49.20749 | -2.20124 | 277 ft | 147 kts | 85° |
| 2026-01-19 17:49 | 49.20814 | -2.19311 | 282 ft | 29 kts | 84° |
| 2026-01-19 17:50 | 49.20741 | -2.18851 | 280 ft | 13 kts | 134° |
| 2026-01-19 17:51 | 49.20688 | -2.19247 | 280 ft | 14 kts | 285° |
| 2026-01-19 17:51 | 49.20711 | -2.19392 | 280 ft | 14 kts | 275° |
| 2026-01-19 17:52 | 49.20615 | -2.19718 | 279 ft | 9 kts | 263° |
| 2026-01-19 17:52 | 49.20599 | -2.19914 | 279 ft | 9 kts | 246° |
| 2026-01-19 17:53 | 49.20520 | -2.19931 | 279 ft | 5 kts | 179° |
| 2026-01-19 17:53 | 49.20438 | -2.19732 | 279 ft | 22 kts | 81° |
| 2026-01-19 17:53 | 49.20408 | -2.19475 | 279 ft | 24 kts | 98° |
| 2026-01-19 17:54 | 49.20359 | -2.19300 | 280 ft | 0 kts | 178° |